This is the latest recevied weather packets stored in our database for station/object XQ6AK-15. If no packets are shown the sender has not sent any weather packets the latest 1 day(s).
| Time | Temp. | Humidity | Pressure | Rain* | Wind** | Luminosity | Snow |
|---|---|---|---|---|---|---|---|
| 1777991364 | 11.67° C | 99% | 1007 hPa | 4.32 mm | 0 m/s | 9 W/m² | - |
| 1777991062 | 11.67° C | 99% | 1007 hPa | 3.05 mm | 0 m/s | 9 W/m² | - |
| 1777990759 | 11.67° C | 99% | 1007.2 hPa | 3.05 mm | 0 m/s | 10 W/m² | - |
| 1777990456 | 11.67° C | 99% | 1007.1 hPa | 1.27 mm | 0.45 m/s, 358° | 10 W/m² | - |
| 1777990153 | 11.67° C | 99% | 1007.2 hPa | 1.78 mm | 0 m/s | 10 W/m² | - |
| 1777989850 | 11.67° C | 99% | 1007 hPa | 1.78 mm | 0 m/s | 12 W/m² | - |
| 1777989546 | 11.67° C | 99% | 1007 hPa | 1.78 mm | 0 m/s | 16 W/m² | - |
| 1777989243 | 11.67° C | 99% | 1006.9 hPa | 0 mm | 0 m/s | 15 W/m² | - |
| 1777988939 | 11.67° C | 99% | 1007 hPa | 0 mm | 0 m/s | 13 W/m² | - |
| 1777988636 | 11.67° C | 99% | 1007.1 hPa | 0 mm | 0 m/s | 19 W/m² | - |
| 1777988332 | 11.67° C | 99% | 1007 hPa | 0 mm | 0 m/s | 20 W/m² | - |
| 1777988029 | 11.67° C | 99% | 1007 hPa | 0 mm | 0 m/s | 36 W/m² | - |
| 1777987725 | 11.67° C | 99% | 1007.1 hPa | 0 mm | 0.45 m/s, 356° | 57 W/m² | - |
| 1777987422 | 11.67° C | 99% | 1007.1 hPa | 0 mm | 1.34 m/s, 344° | 42 W/m² | - |
| 1777987119 | 11.67° C | 99% | 1006.9 hPa | 1.27 mm | 0.89 m/s, 337° | 31 W/m² | - |
| 1777986817 | 11.67° C | 99% | 1007 hPa | 1.27 mm | 0.45 m/s, 9° | 28 W/m² | - |
| 1777986514 | 11.67° C | 99% | 1007.2 hPa | 0 mm | 0 m/s | 30 W/m² | - |
| 1777986213 | 11.67° C | 99% | 1007.3 hPa | 1.78 mm | 0.45 m/s, 2° | 31 W/m² | - |
| 1777985909 | 11.67° C | 99% | 1007.3 hPa | 1.78 mm | 0.89 m/s, 357° | 22 W/m² | - |
| 1777985607 | 11.67° C | 99% | 1007.4 hPa | 0 mm | 0.45 m/s, 33° | 18 W/m² | - |
| 1777985303 | 11.67° C | 99% | 1007.7 hPa | 1.27 mm | 0 m/s | 13 W/m² | - |
| 1777985001 | 11.67° C | 99% | 1007.6 hPa | 1.27 mm | 0.89 m/s, 348° | 10 W/m² | - |
| 1777984696 | 11.67° C | 99% | 1007.7 hPa | 0 mm | 0.45 m/s, 59° | 8 W/m² | - |
| 1777984393 | 11.67° C | 99% | 1007.7 hPa | 1.78 mm | 1.79 m/s, 13° | 10 W/m² | - |
| 1777984089 | 11.67° C | 99% | 1007.6 hPa | 3.05 mm | 0.45 m/s, 15° | 7 W/m² | - |
* Rain latest hour (hover to see other rain measurements)
** Current wind speed in m/s (hover to see current wind gust speed)